Time;durP1;ratioP1;P1;durP2;ratioP2;P2;SDS_P1;SDS_P2;PMS_P1;PMS_P2;Temp;Humidity;BMP_temperature;BMP_pressure;BME280_temperature;BME280_humidity;BME280_pressure;Samples;Min_cycle;Max_cycle;Signal;HPM_P1;HPM_P2
2023/03/23 00:01:13;;;;;;;16.35;6.72;;;;;;;12.96;100.00;100808.56;2077849;28;20033;-73
2023/03/23 00:02:37;;;;;;;12.38;6.13;;;;;;;12.94;100.00;100802.38;2082604;28;20053;-73
2023/03/23 00:04:00;;;;;;;14.45;6.63;;;;;;;12.94;100.00;100805.91;2082864;28;20040;-72
2023/03/23 00:05:22;;;;;;;11.20;6.28;;;;;;;12.95;100.00;100802.38;2083138;28;20163;-72
2023/03/23 00:06:46;;;;;;;14.65;6.13;;;;;;;12.93;100.00;100804.13;2076146;28;20045;-73
2023/03/23 00:08:12;;;;;;;17.25;7.57;;;;;;;12.92;100.00;100802.38;2080455;28;20049;-73
2023/03/23 00:09:40;;;;;;;12.55;6.75;;;;;;;12.91;100.00;100800.59;2069733;28;20785;-72
2023/03/23 00:11:02;;;;;;;10.52;5.75;;;;;;;12.89;100.00;100804.09;2082784;28;20041;-73
2023/03/23 00:12:32;;;;;;;10.27;6.03;;;;;;;12.87;100.00;100804.09;2083617;28;20049;-73
2023/03/23 00:13:56;;;;;;;12.15;6.35;;;;;;;12.84;100.00;100795.25;2078576;28;20053;-73
2023/03/23 00:15:24;;;;;;;13.10;6.25;;;;;;;12.83;100.00;100801.41;2077091;28;20041;-73
2023/03/23 00:16:47;;;;;;;12.88;6.60;;;;;;;12.84;100.00;100797.88;2100092;28;20059;-73
2023/03/23 00:18:08;;;;;;;15.77;7.07;;;;;;;12.84;100.00;100797.88;2079286;28;20069;-73
2023/03/23 00:19:32;;;;;;;15.65;8.10;;;;;;;12.83;100.00;100801.41;2082705;28;20109;-73
2023/03/23 00:20:56;;;;;;;13.68;7.13;;;;;;;12.85;100.00;100794.38;2085386;28;20045;-73
2023/03/23 00:22:21;;;;;;;15.43;7.47;;;;;;;12.88;100.00;100797.03;2073086;28;20316;-73
2023/03/23 00:23:45;;;;;;;15.95;7.68;;;;;;;12.88;100.00;100794.38;2077832;28;20818;-73
2023/03/23 00:25:09;;;;;;;13.75;8.48;;;;;;;12.89;100.00;100798.81;2085577;28;20049;-73
2023/03/23 00:26:33;;;;;;;21.65;11.10;;;;;;;12.89;100.00;100794.38;2077131;28;20081;-73
2023/03/23 00:27:56;;;;;;;16.52;10.07;;;;;;;12.91;100.00;100794.41;2082095;28;20103;-73
2023/03/23 00:29:21;;;;;;;18.40;9.48;;;;;;;12.91;100.00;100794.41;2085420;28;20056;-73
2023/03/23 00:30:47;;;;;;;14.02;7.32;;;;;;;12.91;100.00;100794.41;2061846;28;20042;-72
2023/03/23 00:32:12;;;;;;;13.85;8.27;;;;;;;12.90;100.00;100796.16;2062694;28;20050;-74
2023/03/23 00:33:40;;;;;;;18.65;8.95;;;;;;;12.95;100.00;100801.50;2069330;28;20061;-73
2023/03/23 00:35:03;;;;;;;16.75;8.40;;;;;;;12.94;100.00;100802.38;2084188;28;20073;-72
2023/03/23 00:36:26;;;;;;;15.57;8.35;;;;;;;12.96;100.00;100796.22;2087208;28;20141;-73
2023/03/23 00:37:49;;;;;;;15.25;8.18;;;;;;;12.97;100.00;100794.44;2088752;28;20037;-72
2023/03/23 00:39:12;;;;;;;16.95;8.70;;;;;;;12.99;100.00;100792.69;2085580;28;20532;-73
2023/03/23 00:40:35;;;;;;;14.05;7.55;;;;;;;13.03;100.00;100794.47;2069274;28;20046;-72
2023/03/23 00:42:00;;;;;;;14.98;8.40;;;;;;;13.04;100.00;100796.25;2080656;28;20053;-73
2023/03/23 00:43:24;;;;;;;17.48;7.95;;;;;;;13.02;100.00;100793.59;2076547;28;20041;-72
2023/03/23 00:44:46;;;;;;;14.80;8.10;;;;;;;13.02;100.00;100792.69;2073763;28;20068;-73
2023/03/23 00:46:11;;;;;;;19.42;12.00;;;;;;;13.01;100.00;100790.94;2082541;28;20056;-73
2023/03/23 00:47:35;;;;;;;17.40;8.13;;;;;;;12.99;100.00;100800.66;2085682;28;20052;-73
2023/03/23 00:48:58;;;;;;;14.07;7.80;;;;;;;12.92;100.00;100796.19;2076853;28;20049;-73
2023/03/23 00:50:23;;;;;;;14.85;7.70;;;;;;;12.89;100.00;100798.81;2066120;28;20045;-73
2023/03/23 00:51:44;;;;;;;21.70;16.50;;;;;;;12.85;100.00;100791.72;2082842;28;20072;-73
2023/03/23 00:53:07;;;;;;;55.03;49.05;;;;;;;12.83;100.00;100793.47;2077116;28;20540;-73
2023/03/23 00:54:30;;;;;;;74.95;66.95;;;;;;;12.84;100.00;100788.19;2080706;28;20041;-73
2023/03/23 00:55:52;;;;;;;43.97;36.63;;;;;;;12.90;100.00;100795.28;2083396;28;20049;-73
2023/03/23 00:57:15;;;;;;;45.35;38.33;;;;;;;12.98;100.00;100798.88;2091024;28;20037;-73
2023/03/23 00:58:37;;;;;;;31.45;26.60;;;;;;;13.01;100.00;100798.88;2075504;28;20159;-73
2023/03/23 01:00:00;;;;;;;28.05;21.23;;;;;;;13.01;100.00;100794.47;2074245;28;20072;-73
2023/03/23 01:01:23;;;;;;;28.48;19.95;;;;;;;13.01;100.00;100794.47;2083138;28;20504;-73
2023/03/23 01:02:45;;;;;;;23.48;16.30;;;;;;;12.97;100.00;100795.34;2084388;28;20467;-73
2023/03/23 01:04:08;;;;;;;25.42;17.23;;;;;;;12.96;100.00;100804.16;2078958;28;20052;-73
2023/03/23 01:05:31;;;;;;;21.85;13.15;;;;;;;12.95;100.00;100802.38;2076249;28;20045;-73
2023/03/23 01:06:54;;;;;;;19.17;9.57;;;;;;;12.94;100.00;100799.72;2081729;28;20492;-73
2023/03/23 01:08:16;;;;;;;25.92;17.05;;;;;;;12.93;100.00;100804.13;2075184;28;20567;-73
2023/03/23 01:09:39;;;;;;;26.08;17.42;;;;;;;12.95;100.00;100793.53;2073011;28;20053;-73
2023/03/23 01:11:08;;;;;;;20.65;11.82;;;;;;;12.98;100.00;100797.13;2082037;28;20079;-73
2023/03/23 01:12:30;;;;;;;20.98;14.48;;;;;;;13.03;100.00;100797.13;2084897;28;20139;-73
2023/03/23 01:13:52;;;;;;;28.45;14.13;;;;;;;13.07;100.00;100790.97;2076003;28;20387;-73
2023/03/23 01:15:18;;;;;;;24.73;14.70;;;;;;;13.09;100.00;100789.22;2080574;28;20070;-73
2023/03/23 01:16:41;;;;;;;26.30;16.88;;;;;;;13.13;100.00;100788.38;2083549;28;20083;-73
2023/03/23 01:18:05;;;;;;;24.23;14.55;;;;;;;13.11;100.00;100790.13;2076787;28;20046;-72
2023/03/23 01:19:28;;;;;;;24.98;12.95;;;;;;;13.11;100.00;100787.47;2083013;28;20150;-73
2023/03/23 01:20:52;;;;;;;20.63;12.93;;;;;;;13.09;100.00;100789.22;2062492;28;20122;-73
2023/03/23 01:22:14;;;;;;;20.52;11.38;;;;;;;13.06;100.00;100786.56;2071016;28;20045;-73
2023/03/23 01:23:36;;;;;;;19.52;10.55;;;;;;;12.99;100.00;100787.41;2074218;28;20449;-73
2023/03/23 01:24:59;;;;;;;23.13;13.65;;;;;;;12.94;100.00;100787.34;2088644;28;20532;-73
2023/03/23 01:26:24;;;;;;;21.50;12.00;;;;;;;12.93;100.00;100782.06;2086880;28;20057;-73
2023/03/23 01:27:45;;;;;;;19.73;11.88;;;;;;;12.93;100.00;100792.66;2075322;28;20044;-73
2023/03/23 01:29:08;;;;;;;19.42;7.75;;;;;;;12.92;100.00;100791.78;2073855;28;20498;-73
2023/03/23 01:30:29;;;;;;;17.98;8.07;;;;;;;12.97;100.00;100789.16;2073980;28;20045;-72
2023/03/23 01:31:53;;;;;;;16.73;7.15;;;;;;;13.03;100.00;100797.13;2075453;28;20140;-73
2023/03/23 01:33:15;;;;;;;15.27;6.32;;;;;;;13.09;100.00;100792.75;2081058;28;20120;-72
2023/03/23 01:34:39;;;;;;;14.95;8.05;;;;;;;13.18;100.00;100801.69;2084017;28;20059;-73
2023/03/23 01:36:03;;;;;;;17.50;9.50;;;;;;;13.22;100.00;100796.38;2072176;28;20401;-73
2023/03/23 01:37:26;;;;;;;17.52;7.93;;;;;;;13.23;100.00;100798.16;2079869;28;20053;-73
2023/03/23 01:38:51;;;;;;;16.42;7.35;;;;;;;13.26;100.00;100792.88;2076010;28;20056;-73
2023/03/23 01:40:14;;;;;;;20.27;8.25;;;;;;;13.31;100.00;100795.56;2089518;28;20048;-73
2023/03/23 01:41:37;;;;;;;18.55;8.02;;;;;;;13.36;100.00;100788.50;2079186;28;20056;-73
2023/03/23 01:43:13;;;;;;;18.83;8.32;;;;;;;13.43;100.00;100785.91;2077110;28;20106;-73
2023/03/23 01:45:16;;;;;;;21.30;9.60;;;;;;;13.49;100.00;100796.53;2083504;28;20045;-73
2023/03/23 01:46:41;;;;;;;17.02;7.82;;;;;;;13.52;100.00;100800.97;2079284;28;20061;-73
2023/03/23 01:48:11;;;;;;;20.05;9.05;;;;;;;13.52;100.00;100803.63;2075108;28;20057;-73
2023/03/23 01:49:38;;;;;;;19.35;9.80;;;;;;;13.49;100.00;100795.63;2083236;28;20053;-73
2023/03/23 01:51:05;;;;;;;20.42;10.38;;;;;;;13.49;100.00;100800.94;2075421;28;20053;-72
2023/03/23 01:52:29;;;;;;;30.45;19.50;;;;;;;13.49;100.00;100798.28;2088219;28;20501;-73
2023/03/23 01:54:02;;;;;;;42.83;33.15;;;;;;;13.48;100.00;100799.16;2078704;28;20042;-73
2023/03/23 01:55:26;;;;;;;70.82;62.10;;;;;;;13.48;100.00;100800.06;2075293;28;20677;-73
2023/03/23 01:56:52;;;;;;;134.52;120.43;;;;;;;13.48;100.00;100801.81;2074523;28;20049;-73
2023/03/23 01:58:13;;;;;;;48.47;39.10;;;;;;;13.48;100.00;100800.06;2077135;28;20049;-74
2023/03/23 01:59:36;;;;;;;49.60;39.85;;;;;;;13.49;100.00;100799.19;2073618;28;20055;-73
2023/03/23 02:01:17;;;;;;;32.33;27.55;;;;;;;13.47;100.00;100805.34;2077374;28;20038;-73
2023/03/23 02:02:38;;;;;;;22.50;17.02;;;;;;;13.45;100.00;100794.75;2062983;28;20081;-73
2023/03/23 02:04:04;;;;;;;15.50;8.68;;;;;;;13.43;100.00;100796.50;2071793;28;20049;-73
2023/03/23 02:05:31;;;;;;;17.63;8.07;;;;;;;13.38;100.00;100802.66;2082671;28;20127;-73
2023/03/23 02:06:57;;;;;;;19.80;9.50;;;;;;;13.29;100.00;100792.91;2086747;28;20161;-73
2023/03/23 02:08:24;;;;;;;21.33;9.23;;;;;;;13.23;100.00;100791.97;2085385;28;20420;-73
2023/03/23 02:09:45;;;;;;;19.60;11.05;;;;;;;13.19;100.00;100804.34;2102431;28;20548;-73
2023/03/23 02:11:14;;;;;;;17.83;7.47;;;;;;;13.17;100.00;100792.84;2081837;28;20539;-73
2023/03/23 02:12:35;;;;;;;19.05;7.63;;;;;;;13.16;100.00;100794.59;2084844;28;20049;-72
2023/03/23 02:13:58;;;;;;;20.20;8.45;;;;;;;13.19;100.00;100798.16;2074806;28;20072;-73
2023/03/23 02:15:22;;;;;;;19.00;7.53;;;;;;;13.21;100.00;100797.25;2075708;28;20065;-73
2023/03/23 02:16:50;;;;;;;15.73;7.70;;;;;;;13.25;100.00;100800.84;2066331;28;20050;-74
2023/03/23 02:18:25;;;;;;;18.80;8.07;;;;;;;13.29;100.00;100800.84;2075958;28;20073;-73
2023/03/23 02:20:13;;;;;;;18.83;7.72;;;;;;;13.34;100.00;100799.09;2079001;28;20029;-73
2023/03/23 02:22:04;;;;;;;25.48;9.63;;;;;;;13.40;100.00;100800.88;2079989;28;20046;-73
2023/03/23 02:23:41;;;;;;;27.27;11.25;;;;;;;13.47;100.00;100792.97;2096715;28;20051;-74
2023/03/23 02:25:35;;;;;;;21.95;9.85;;;;;;;13.53;100.00;100797.41;2079990;28;20567;-73
2023/03/23 02:27:02;;;;;;;22.88;10.85;;;;;;;13.54;100.00;100792.13;2088781;28;20045;-73
2023/03/23 02:28:49;;;;;;;24.80;9.65;;;;;;;13.59;100.00;100793.94;2077153;28;20116;-73
2023/03/23 02:30:35;;;;;;;19.77;10.90;;;;;;;13.65;100.00;100802.78;2079965;28;20114;-73
2023/03/23 02:32:10;;;;;;;21.25;8.80;;;;;;;13.70;100.00;100798.38;2087628;28;20051;-74
2023/03/23 02:33:41;;;;;;;22.05;10.13;;;;;;;13.72;100.00;100796.59;2079573;28;20050;-73
2023/03/23 02:35:10;;;;;;;30.55;12.43;;;;;;;13.77;100.00;100796.63;2079212;28;20092;-73
2023/03/23 02:36:43;;;;;;;28.15;12.82;;;;;;;13.81;100.00;100791.31;2078240;28;20037;-73
2023/03/23 02:38:11;;;;;;;25.33;12.27;;;;;;;13.87;100.00;100799.31;2078146;28;20067;-73
2023/03/23 02:39:39;;;;;;;28.48;13.75;;;;;;;13.94;100.00;100803.75;2081467;28;20139;-73
2023/03/23 02:41:02;;;;;;;23.92;12.15;;;;;;;14.01;100.00;100806.41;2068563;28;20469;-73
2023/03/23 02:42:31;;;;;;;20.85;11.13;;;;;;;14.07;100.00;100807.31;2089481;28;20547;-73
2023/03/23 02:43:57;;;;;;;25.95;14.07;;;;;;;14.10;100.00;100802.03;2080017;28;20127;-74
2023/03/23 02:45:21;;;;;;;31.05;23.33;;;;;;;14.12;100.00;100813.50;2075919;28;20072;-73
2023/03/23 02:46:45;;;;;;;28.35;14.73;;;;;;;14.14;100.00;100808.22;2075722;28;20151;-73
2023/03/23 02:48:08;;;;;;;33.63;19.85;;;;;;;14.19;100.00;100807.31;2075187;28;20049;-73
2023/03/23 02:49:36;;;;;;;31.65;22.20;;;;;;;14.23;100.00;100809.13;2069240;28;20141;-73
2023/03/23 02:51:00;;;;;;;37.63;17.45;;;;;;;14.26;100.00;100800.25;2076400;28;20049;-74
2023/03/23 02:52:26;;;;;;;25.92;14.70;;;;;;;14.29;100.00;100809.13;2086168;28;20053;-72
2023/03/23 02:53:50;;;;;;;20.80;10.15;;;;;;;14.32;100.00;100811.78;2077004;28;20103;-73
2023/03/23 02:55:15;;;;;;;17.30;9.23;;;;;;;14.34;100.00;100809.13;2076285;28;20140;-73
2023/03/23 02:56:41;;;;;;;16.25;8.60;;;;;;;14.33;100.00;100810.91;2096969;28;20093;-73
2023/03/23 02:58:13;;;;;;;18.67;7.60;;;;;;;14.31;100.00;100815.31;2087089;28;20051;-73
2023/03/23 02:59:38;;;;;;;16.95;8.55;;;;;;;14.30;100.00;100813.56;2076671;28;22078;-72
2023/03/23 03:01:00;;;;;;;17.17;8.50;;;;;;;14.30;100.00;100810.91;2082376;28;20111;-73
2023/03/23 03:02:26;;;;;;;19.95;8.55;;;;;;;14.33;100.00;100812.66;2076873;28;20053;-72
2023/03/23 03:03:47;;;;;;;17.80;6.75;;;;;;;14.33;100.00;100821.50;2077770;28;20050;-73
2023/03/23 03:05:21;;;;;;;14.60;6.60;;;;;;;14.30;100.00;100808.25;2078509;28;20045;-73
2023/03/23 03:06:50;;;;;;;17.55;7.78;;;;;;;14.30;100.00;100810.03;2084936;28;20101;-74
2023/03/23 03:08:20;;;;;;;18.83;7.70;;;;;;;14.28;100.00;100804.69;2091939;28;20048;-72
2023/03/23 03:09:50;;;;;;;17.90;8.55;;;;;;;14.25;100.00;100812.66;2079434;28;20073;-73
2023/03/23 03:11:15;;;;;;;19.88;12.35;;;;;;;14.24;100.00;100810.00;2077193;28;20068;-73
2023/03/23 03:12:44;;;;;;;20.02;12.70;;;;;;;14.26;100.00;100819.72;2074035;28;20590;-73
2023/03/23 03:14:10;;;;;;;34.33;20.92;;;;;;;14.27;100.00;100817.97;2085212;28;20143;-73
2023/03/23 03:15:36;;;;;;;37.33;20.95;;;;;;;14.29;100.00;100821.53;2083677;28;20060;-73
2023/03/23 03:17:06;;;;;;;29.48;16.60;;;;;;;14.32;100.00;100816.19;2076853;28;20095;-73
2023/03/23 03:18:33;;;;;;;27.92;13.80;;;;;;;14.34;100.00;100817.97;2071923;28;20319;-73
2023/03/23 03:19:59;;;;;;;42.45;22.35;;;;;;;14.40;100.00;100813.59;2076819;28;20073;-73
2023/03/23 03:21:27;;;;;;;27.02;16.55;;;;;;;14.42;100.00;100811.81;2075949;28;20143;-73
2023/03/23 03:22:52;;;;;;;23.00;14.63;;;;;;;14.43;100.00;100821.56;2087506;28;20052;-73
2023/03/23 03:24:19;;;;;;;20.45;14.95;;;;;;;14.44;100.00;100818.88;2079844;28;20047;-73
2023/03/23 03:25:48;;;;;;;22.08;11.88;;;;;;;14.45;100.00;100820.66;2070722;28;20057;-73
2023/03/23 03:27:22;;;;;;;22.02;11.13;;;;;;;14.43;100.00;100814.50;2076286;28;20061;-73
2023/03/23 03:28:55;;;;;;;21.92;10.80;;;;;;;14.43;100.00;100821.56;2070292;28;20050;-73
2023/03/23 03:30:20;;;;;;;22.27;10.98;;;;;;;14.44;100.00;100818.03;2074468;28;20068;-73
2023/03/23 03:31:47;;;;;;;17.45;8.23;;;;;;;14.45;100.00;100815.34;2059679;28;20057;-73
2023/03/23 03:33:11;;;;;;;15.38;9.25;;;;;;;14.47;100.00;100824.22;2073606;28;20038;-73
2023/03/23 03:34:33;;;;;;;12.60;6.82;;;;;;;14.48;100.00;100820.69;2078178;28;20056;-73
2023/03/23 03:35:57;;;;;;;16.00;8.90;;;;;;;14.46;100.00;100811.81;2076511;28;20746;-73
2023/03/23 03:37:20;;;;;;;14.13;7.10;;;;;;;14.42;100.00;100811.81;2082821;28;20573;-73
2023/03/23 03:38:46;;;;;;;13.38;6.80;;;;;;;14.41;100.00;100810.06;2076987;28;20030;-74
2023/03/23 03:40:12;;;;;;;19.13;7.95;;;;;;;14.42;100.00;100811.81;2073659;28;20045;-73
2023/03/23 03:41:38;;;;;;;20.48;9.48;;;;;;;14.44;100.00;100812.72;2070507;28;20050;-73
2023/03/23 03:43:01;;;;;;;18.80;8.68;;;;;;;14.47;100.00;100808.28;2074680;28;20344;-73
2023/03/23 03:44:22;;;;;;;15.07;8.27;;;;;;;14.51;100.00;100806.50;2074440;28;20049;-73
2023/03/23 03:45:45;;;;;;;26.35;9.20;;;;;;;14.55;100.00;100822.47;2080981;28;20182;-73
2023/03/23 03:47:07;;;;;;;15.27;8.63;;;;;;;14.58;100.00;100822.44;2068460;28;20061;-73
2023/03/23 03:48:29;;;;;;;19.58;9.13;;;;;;;14.61;100.00;100821.56;2079311;28;20045;-73
2023/03/23 03:49:52;;;;;;;23.55;11.73;;;;;;;14.64;100.00;100827.75;2076707;28;20072;-73
2023/03/23 03:51:13;;;;;;;22.27;11.88;;;;;;;14.66;100.00;100826.00;2091227;28;20060;-74
2023/03/23 03:52:42;;;;;;;20.45;9.73;;;;;;;14.69;100.00;100826.00;2078940;28;20037;-73
2023/03/23 03:54:03;;;;;;;17.77;8.93;;;;;;;14.71;100.00;100831.31;2081642;28;20517;-73
2023/03/23 03:55:27;;;;;;;17.83;8.80;;;;;;;14.73;100.00;100833.09;2076447;28;20450;-73
2023/03/23 03:56:51;;;;;;;16.88;8.80;;;;;;;14.73;100.00;100825.13;2082914;28;20041;-73
2023/03/23 03:58:48;;;;;;;17.08;8.25;;;;;;;14.73;100.00;100827.78;2094627;28;20102;-73
2023/03/23 04:00:23;;;;;;;19.15;8.40;;;;;;;14.74;100.00;100826.88;2080671;28;20041;-73
2023/03/23 04:01:46;;;;;;;21.02;8.70;;;;;;;14.77;100.00;100828.63;2079265;28;20097;-73
2023/03/23 04:03:09;;;;;;;17.00;8.50;;;;;;;14.81;100.00;100832.19;2081394;28;20041;-73
2023/03/23 04:04:54;;;;;;;15.27;7.22;;;;;;;14.83;100.00;100825.13;2079819;28;20617;-73
2023/03/23 04:06:16;;;;;;;17.25;7.65;;;;;;;14.87;100.00;100829.53;2077247;28;20037;-74
2023/03/23 04:07:41;;;;;;;14.65;7.03;;;;;;;14.91;100.00;100831.28;2076200;28;20533;-73
2023/03/23 04:09:07;;;;;;;19.38;7.05;;;;;;;14.95;100.00;100844.59;2072747;28;20092;-74
2023/03/23 04:10:33;;;;;;;16.73;7.00;;;;;;;14.99;100.00;100842.81;2085694;28;20045;-74
2023/03/23 04:11:56;;;;;;;21.15;7.05;;;;;;;15.02;100.00;100849.03;2077026;28;20072;-73
2023/03/23 04:13:37;;;;;;;24.95;7.47;;;;;;;15.07;100.00;100852.56;2086359;28;20144;-73
2023/03/23 04:15:11;;;;;;;19.38;7.68;;;;;;;15.10;100.00;100852.53;2078235;28;20060;-74
2023/03/23 04:16:35;;;;;;;17.48;7.90;;;;;;;15.13;100.00;100854.31;2082634;28;20068;-73
2023/03/23 04:17:57;;;;;;;17.75;9.25;;;;;;;15.16;100.00;100855.19;2083268;28;20060;-73
2023/03/23 04:19:20;;;;;;;24.10;9.48;;;;;;;15.19;100.00;100861.38;2075085;28;20045;-73
2023/03/23 04:20:46;;;;;;;17.88;7.55;;;;;;;15.22;100.00;100862.28;2077478;28;20068;-73
2023/03/23 04:22:09;;;;;;;16.10;7.35;;;;;;;15.26;100.00;100860.50;2074480;28;20072;-73
2023/03/23 04:23:35;;;;;;;20.77;8.45;;;;;;;15.29;100.00;100860.50;2083156;28;20796;-73
2023/03/23 04:25:04;;;;;;;16.38;8.60;;;;;;;15.30;100.00;100862.25;2084648;28;20041;-73
2023/03/23 04:26:28;;;;;;;20.00;10.80;;;;;;;15.32;100.00;100864.03;2071214;28;20042;-73
2023/03/23 04:27:53;;;;;;;19.55;9.95;;;;;;;15.32;100.00;100865.78;2082706;28;20500;-73
2023/03/23 04:29:20;;;;;;;19.27;9.00;;;;;;;15.34;100.00;100872.00;2086097;28;20036;-73
2023/03/23 04:31:01;;;;;;;18.10;9.93;;;;;;;15.35;100.00;100869.34;2081255;28;20482;-73
2023/03/23 04:32:24;;;;;;;16.92;9.98;;;;;;;15.35;100.00;100876.44;2085452;28;20048;-73
2023/03/23 04:33:52;;;;;;;15.32;7.15;;;;;;;15.35;100.00;100872.00;2076670;28;20116;-72
2023/03/23 04:35:16;;;;;;;16.33;7.85;;;;;;;15.37;100.00;100871.97;2076970;28;20127;-73
2023/03/23 04:36:42;;;;;;;14.18;5.70;;;;;;;15.37;100.00;100864.00;2076046;28;20045;-73
2023/03/23 04:38:11;;;;;;;15.93;5.80;;;;;;;15.38;100.00;100872.00;2078856;28;20049;-73
2023/03/23 04:39:34;;;;;;;17.58;7.40;;;;;;;15.39;100.00;100879.09;2082763;28;20053;-73
2023/03/23 04:41:01;;;;;;;16.15;5.93;;;;;;;15.40;100.00;100879.97;2085668;28;20049;-73
2023/03/23 04:42:45;;;;;;;15.75;5.85;;;;;;;15.38;100.00;100872.00;2079265;28;20295;-73
2023/03/23 04:44:22;;;;;;;14.00;6.22;;;;;;;15.37;100.00;100875.53;2079058;28;20045;-72
2023/03/23 04:45:57;;;;;;;15.20;6.70;;;;;;;15.40;100.00;100872.00;2078719;28;20410;-73
2023/03/23 04:47:19;;;;;;;16.67;7.55;;;;;;;15.40;100.00;100872.88;2085331;28;20103;-73
2023/03/23 04:48:50;;;;;;;16.90;5.82;;;;;;;15.41;100.00;100866.69;2085062;28;20053;-73
2023/03/23 04:50:23;;;;;;;16.23;7.38;;;;;;;15.43;100.00;100867.53;2090669;28;20127;-73
2023/03/23 04:51:46;;;;;;;14.48;7.47;;;;;;;15.45;100.00;100862.22;2079644;28;20488;-73
2023/03/23 04:53:17;;;;;;;17.80;8.52;;;;;;;15.44;100.00;100858.66;2081088;28;20731;-73
2023/03/23 04:54:42;;;;;;;13.60;7.15;;;;;;;15.48;100.00;100862.22;2076078;28;20127;-73
2023/03/23 04:56:05;;;;;;;17.27;7.95;;;;;;;15.48;100.00;100852.47;2091150;28;20072;-73
2023/03/23 04:57:35;;;;;;;13.88;6.65;;;;;;;15.50;100.00;100860.41;2079996;28;20060;-73
2023/03/23 04:59:27;;;;;;;13.13;5.88;;;;;;;15.49;100.00;100850.69;2080516;28;20050;-73
2023/03/23 05:01:17;;;;;;;17.63;7.90;;;;;;;15.49;100.00;100861.34;2087759;28;20048;-73
2023/03/23 05:03:00;;;;;;;21.55;9.00;;;;;;;15.51;100.00;100857.75;2085403;28;20047;-73
2023/03/23 05:04:24;;;;;;;42.33;17.20;;;;;;;15.53;100.00;100858.69;2081255;28;20467;-73
2023/03/23 05:06:09;;;;;;;21.15;8.60;;;;;;;15.56;100.00;100865.75;2086221;28;20080;-74
2023/03/23 05:07:32;;;;;;;12.27;6.07;;;;;;;15.58;100.00;100865.75;2075367;28;20060;-74
2023/03/23 05:08:54;;;;;;;14.32;6.78;;;;;;;15.61;100.00;100860.44;2095009;28;20069;-73
2023/03/23 05:10:20;;;;;;;13.50;6.47;;;;;;;15.64;100.00;100858.63;2088308;28;20116;-73
2023/03/23 05:11:43;;;;;;;18.40;6.15;;;;;;;15.65;100.00;100870.19;2076956;28;20055;-73
2023/03/23 05:13:06;;;;;;;16.73;5.60;;;;;;;15.67;100.00;100869.28;2082600;28;20048;-73
2023/03/23 05:14:28;;;;;;;13.40;6.28;;;;;;;15.69;100.00;100862.16;2075979;28;20049;-73
2023/03/23 05:16:05;;;;;;;14.02;6.43;;;;;;;15.72;100.00;100866.59;2077266;28;20115;-73
2023/03/23 05:17:30;;;;;;;18.25;6.70;;;;;;;15.74;100.00;100857.72;2076588;28;20665;-74
2023/03/23 05:18:57;;;;;;;12.95;5.70;;;;;;;15.76;100.00;100861.25;2091632;28;20066;-73
2023/03/23 05:20:20;;;;;;;20.77;7.07;;;;;;;15.78;100.00;100870.13;2078957;28;20061;-73
2023/03/23 05:21:48;;;;;;;11.60;6.05;;;;;;;15.82;100.00;100869.22;2083622;28;20335;-73
2023/03/23 05:23:10;;;;;;;16.92;6.57;;;;;;;15.85;100.00;100855.00;2082561;28;20048;-72
2023/03/23 05:24:33;;;;;;;11.77;5.20;;;;;;;15.87;100.00;100862.13;2075551;28;20140;-73
2023/03/23 05:26:02;;;;;;;13.43;5.40;;;;;;;15.91;100.00;100863.84;2074009;28;20060;-73
2023/03/23 05:27:30;;;;;;;12.18;4.78;;;;;;;15.94;100.00;100863.88;2074318;28;20144;-73
2023/03/23 05:28:55;;;;;;;10.32;4.85;;;;;;;15.98;100.00;100863.81;2071171;28;20042;-72
2023/03/23 05:30:32;;;;;;;10.95;5.38;;;;;;;16.02;100.00;100855.81;2098661;28;20596;-73
2023/03/23 05:31:55;;;;;;;10.27;4.50;;;;;;;16.07;100.00;100863.78;2080972;28;20394;-73
2023/03/23 05:33:18;;;;;;;10.00;4.85;;;;;;;16.09;100.00;100860.22;2081069;28;20051;-73
2023/03/23 05:34:44;;;;;;;12.40;4.35;;;;;;;16.11;100.00;100854.88;2084086;28;20068;-73
2023/03/23 05:36:10;;;;;;;10.23;4.50;;;;;;;16.13;100.00;100858.44;2076825;28;20080;-73
2023/03/23 05:37:53;;;;;;;13.65;4.15;;;;;;;16.13;100.00;100853.09;2086599;28;20598;-73
2023/03/23 05:39:17;;;;;;;12.73;4.45;;;;;;;16.15;100.00;100856.63;2085677;28;20056;-73
2023/03/23 05:41:02;;;;;;;15.48;5.03;;;;;;;16.15;100.00;100859.28;2085890;28;20039;-73
2023/03/23 05:42:34;;;;;;;9.40;4.22;;;;;;;16.16;100.00;100858.41;2091514;28;20530;-73
2023/03/23 05:44:07;;;;;;;13.43;4.75;;;;;;;16.18;100.00;100853.97;2086354;28;20541;-73
2023/03/23 05:45:41;;;;;;;9.93;4.22;;;;;;;16.22;100.00;100859.25;2076701;28;20520;-73
2023/03/23 05:47:04;;;;;;;9.98;4.75;;;;;;;16.26;100.00;100862.78;2083676;28;20634;-73
2023/03/23 05:48:26;;;;;;;12.02;4.90;;;;;;;16.28;100.00;100864.53;2076620;28;20145;-73
2023/03/23 05:49:50;;;;;;;15.07;4.82;;;;;;;16.30;100.00;100860.09;2081133;28;20041;-73
2023/03/23 05:51:14;;;;;;;10.65;5.15;;;;;;;16.32;100.00;100866.31;2079228;28;20467;-73
2023/03/23 05:52:40;;;;;;;13.30;4.85;;;;;;;16.37;100.00;100862.72;2088063;28;20104;-73
2023/03/23 05:54:07;;;;;;;13.15;4.90;;;;;;;16.40;100.00;100860.94;2087356;28;20095;-74
2023/03/23 05:55:30;;;;;;;14.23;5.15;;;;;;;16.44;100.00;100864.44;2074937;28;20056;-73
2023/03/23 05:57:03;;;;;;;14.63;6.05;;;;;;;16.47;100.00;100861.78;2069256;28;20041;-73
2023/03/23 05:58:40;;;;;;;13.10;4.93;;;;;;;16.47;100.00;100867.09;2078064;28;20053;-73
2023/03/23 06:00:14;;;;;;;12.07;4.70;;;;;;;16.48;100.00;100866.19;2072033;28;20095;-72
2023/03/23 06:01:38;;;;;;;11.43;5.38;;;;;;;16.52;100.00;100870.63;2086556;28;20094;-73
2023/03/23 06:03:03;;;;;;;14.40;5.18;;;;;;;16.55;100.00;100867.91;2075285;28;20090;-73
2023/03/23 06:04:48;;;;;;;7.93;3.63;;;;;;;16.52;100.00;100870.63;2083280;28;20626;-73
2023/03/23 06:06:20;;;;;;;15.07;4.75;;;;;;;16.52;100.00;100871.50;2075829;28;20570;-73
2023/03/23 06:08:01;;;;;;;15.63;4.60;;;;;;;16.52;100.00;100878.63;2075309;28;20056;-74
2023/03/23 06:09:25;;;;;;;14.23;4.15;;;;;;;16.55;100.00;100878.56;2076347;28;20042;-73
2023/03/23 06:11:08;;;;;;;11.00;4.82;;;;;;;16.57;100.00;100876.78;2066520;28;20038;-73
2023/03/23 06:12:40;;;;;;;15.57;4.72;;;;;;;16.59;100.00;100885.66;2078064;28;20570;-73
2023/03/23 06:14:17;;;;;;;10.45;4.70;;;;;;;16.58;100.00;100892.78;2077094;28;20077;-73
2023/03/23 06:15:40;;;;;;;17.27;7.40;;;;;;;16.59;100.00;100889.22;2076024;28;20678;-73
2023/03/23 06:17:26;;;;;;;11.60;4.28;;;;;;;16.60;100.00;100898.16;2086705;28;20049;-73
2023/03/23 06:18:50;;;;;;;14.02;5.70;;;;;;;16.61;100.00;100900.78;2075728;28;20100;-74
2023/03/23 06:20:17;;;;;;;28.65;12.52;;;;;;;16.63;100.00;100899.00;2082650;28;20074;-73
2023/03/23 06:21:40;;;;;;;15.98;7.85;;;;;;;16.64;100.00;100892.78;2076845;28;20057;-73
2023/03/23 06:23:25;;;;;;;23.05;13.15;;;;;;;16.65;100.00;100891.00;2065581;28;20085;-72
2023/03/23 06:24:48;;;;;;;24.02;15.75;;;;;;;16.64;100.00;100892.78;2060340;28;20053;-72
2023/03/23 06:26:17;;;;;;;34.10;30.45;;;;;;;16.67;100.00;100892.72;2069182;28;20030;-73
2023/03/23 06:27:43;;;;;;;32.35;28.60;;;;;;;16.69;100.00;100898.94;2067158;28;20046;-74
2023/03/23 06:29:10;;;;;;;22.48;17.80;;;;;;;16.71;100.00;100897.16;2074114;28;20428;-73
2023/03/23 06:30:36;;;;;;;28.77;25.90;;;;;;;16.72;100.00;100887.38;2069068;28;20050;-73
2023/03/23 06:32:02;;;;;;;24.77;19.90;;;;;;;16.76;100.00;100890.91;2077702;28;20069;-73
2023/03/23 06:33:25;;;;;;;19.55;11.63;;;;;;;16.77;100.00;100896.22;2070654;28;20491;-73
2023/03/23 06:35:04;;;;;;;9.80;4.22;;;;;;;16.72;100.00;100898.94;2077806;28;20052;-72
2023/03/23 06:36:46;;;;;;;11.00;6.80;;;;;;;16.70;100.00;100902.50;2093554;28;20064;-74